createdAt,value
2018-06-15T00:00:04.655Z,36.40
2018-06-15T00:02:34.057Z,36.50
2018-06-15T00:05:02.421Z,36.50
2018-06-15T00:07:30.816Z,37.20
2018-06-15T00:09:59.742Z,36.70
2018-06-15T00:12:28.002Z,36.70
2018-06-15T00:14:56.375Z,36.90
2018-06-15T00:17:24.766Z,36.80
2018-06-15T00:19:53.063Z,36.90
2018-06-15T00:22:21.615Z,37.00
2018-06-15T00:24:50.002Z,37.00
2018-06-15T00:27:18.377Z,37.10
2018-06-15T00:29:46.722Z,37.10
2018-06-15T00:32:14.990Z,37.10
2018-06-15T00:34:43.378Z,37.20
2018-06-15T00:37:11.883Z,37.30
2018-06-15T00:39:40.180Z,37.40
2018-06-15T00:42:08.480Z,37.30
2018-06-15T00:44:36.806Z,37.40
2018-06-15T00:47:05.598Z,37.50
2018-06-15T00:49:33.979Z,37.50
2018-06-15T00:52:03.131Z,37.60
2018-06-15T00:54:31.594Z,37.70
2018-06-15T00:57:11.082Z,37.70
2018-06-15T00:59:39.382Z,37.70
2018-06-15T01:02:07.642Z,37.80
2018-06-15T01:04:35.927Z,37.90
2018-06-15T01:07:04.264Z,38.10
2018-06-15T01:09:32.674Z,38.10
2018-06-15T01:12:01.072Z,38.30
2018-06-15T01:14:29.528Z,38.30
2018-06-15T01:16:57.815Z,38.30
2018-06-15T01:19:26.145Z,38.40
2018-06-15T01:21:54.574Z,38.50
2018-06-15T01:26:50.959Z,38.70
2018-06-15T01:29:19.198Z,39.30
2018-06-15T01:31:47.525Z,38.80
2018-06-15T01:34:15.770Z,38.90
2018-06-15T01:36:44.238Z,39.00
2018-06-15T01:39:12.534Z,39.00
2018-06-15T01:41:40.800Z,39.10
2018-06-15T01:44:09.058Z,39.10
2018-06-15T01:46:37.367Z,39.10
2018-06-15T01:49:05.641Z,39.20
2018-06-15T01:51:33.940Z,39.20
2018-06-15T01:54:02.231Z,39.30
2018-06-15T01:56:30.642Z,39.40
2018-06-15T01:58:59.081Z,39.50
2018-06-15T02:01:27.569Z,39.60
2018-06-15T02:04:02.379Z,39.60
2018-06-15T02:08:59.141Z,40.20
2018-06-15T02:11:28.766Z,39.70
2018-06-15T02:13:57.121Z,39.70
2018-06-15T02:16:25.454Z,39.70
2018-06-15T02:18:54.273Z,39.70
2018-06-15T02:21:22.645Z,39.80
2018-06-15T02:23:51.049Z,39.80
2018-06-15T02:26:19.465Z,39.90
2018-06-15T02:28:47.763Z,39.30
2018-06-15T02:31:16.097Z,39.90
2018-06-15T02:33:44.453Z,39.90
2018-06-15T02:36:12.783Z,40.00
2018-06-15T02:38:41.149Z,40.00
2018-06-15T02:41:09.490Z,40.10
2018-06-15T02:43:37.836Z,40.20
2018-06-15T02:46:06.207Z,40.10
2018-06-15T02:48:34.620Z,40.20
2018-06-15T02:51:02.925Z,40.30
2018-06-15T02:53:31.279Z,40.30
2018-06-15T02:55:59.728Z,40.40
2018-06-15T02:58:28.364Z,40.50
2018-06-15T03:00:56.730Z,40.60
2018-06-15T03:03:25.048Z,40.70
2018-06-15T03:05:53.388Z,40.80
2018-06-15T03:08:21.720Z,40.80
2018-06-15T03:10:50.038Z,40.90
2018-06-15T03:13:18.363Z,40.90
2018-06-15T03:15:46.872Z,41.00
2018-06-15T03:18:15.237Z,41.00
2018-06-15T03:20:43.635Z,41.00
2018-06-15T03:23:12.162Z,41.10
2018-06-15T03:25:40.508Z,41.10
2018-06-15T03:28:08.862Z,41.10
2018-06-15T03:30:37.161Z,41.20
2018-06-15T03:33:05.524Z,41.20
2018-06-15T03:35:33.899Z,41.30
2018-06-15T03:38:08.951Z,41.40
2018-06-15T03:43:36.559Z,41.50
2018-06-15T03:46:05.196Z,41.40
2018-06-15T03:48:33.600Z,41.50
2018-06-15T03:51:01.990Z,41.60
2018-06-15T03:53:30.372Z,41.60
2018-06-15T03:55:59.067Z,41.60
2018-06-15T03:58:27.426Z,41.70
2018-06-15T04:00:55.917Z,41.60
2018-06-15T04:03:24.528Z,41.70
2018-06-15T04:05:52.850Z,41.80
2018-06-15T04:08:21.267Z,41.70
2018-06-15T04:10:49.572Z,41.80
2018-06-15T04:13:17.929Z,41.80
2018-06-15T04:15:46.437Z,41.90
2018-06-15T04:18:14.862Z,41.90
2018-06-15T04:20:43.258Z,41.90
2018-06-15T04:23:11.663Z,41.90
2018-06-15T04:25:40.209Z,41.90
2018-06-15T04:28:08.544Z,41.90
2018-06-15T04:30:36.873Z,42.10
2018-06-15T04:33:05.195Z,42.10
2018-06-15T04:35:33.555Z,42.10
2018-06-15T04:38:01.952Z,42.20
2018-06-15T04:40:30.439Z,42.20
2018-06-15T04:42:58.831Z,42.20
2018-06-15T04:45:27.851Z,42.20
2018-06-15T04:47:56.270Z,42.20
2018-06-15T04:50:24.659Z,42.30
2018-06-15T04:52:53.003Z,42.30
2018-06-15T04:55:21.383Z,42.40
2018-06-15T04:57:49.986Z,42.40
2018-06-15T05:02:46.539Z,42.40
2018-06-15T05:05:14.863Z,42.50
2018-06-15T05:07:43.269Z,42.50
2018-06-15T05:10:11.686Z,42.50
2018-06-15T05:12:40.028Z,42.60
2018-06-15T05:15:08.459Z,42.60
2018-06-15T05:17:36.814Z,42.60
2018-06-15T05:20:05.638Z,42.70
2018-06-15T05:22:34.048Z,42.70
2018-06-15T05:25:02.535Z,42.80
2018-06-15T05:27:31.239Z,42.80
2018-06-15T05:29:59.571Z,42.80
2018-06-15T05:32:27.898Z,42.80
2018-06-15T05:34:56.215Z,42.80
2018-06-15T05:37:24.597Z,42.80
2018-06-15T05:39:52.951Z,42.80
2018-06-15T05:42:21.352Z,42.80
2018-06-15T05:44:49.887Z,42.90
2018-06-15T05:47:18.233Z,42.90
2018-06-15T05:49:46.729Z,43.00
2018-06-15T05:52:15.469Z,43.00
2018-06-15T05:54:44.248Z,43.10
2018-06-15T05:57:12.744Z,43.10
2018-06-15T05:59:41.105Z,43.70
2018-06-15T06:02:09.468Z,43.10
2018-06-15T06:04:37.875Z,43.20
2018-06-15T06:07:06.228Z,43.20
2018-06-15T06:09:34.527Z,43.30
2018-06-15T06:12:02.827Z,43.40
2018-06-15T06:14:31.259Z,43.40
2018-06-15T06:16:59.603Z,43.50
2018-06-15T06:19:27.919Z,43.40
2018-06-15T06:21:56.328Z,43.40
2018-06-15T06:24:24.635Z,43.40
2018-06-15T06:26:53.049Z,43.50
2018-06-15T06:29:21.382Z,43.30
2018-06-15T06:31:49.951Z,43.30
2018-06-15T06:34:18.348Z,43.30
2018-06-15T06:36:46.718Z,43.30
2018-06-15T06:39:15.116Z,43.30
2018-06-15T06:44:11.712Z,43.30
2018-06-15T06:46:40.147Z,43.20
2018-06-15T06:49:08.503Z,43.20
2018-06-15T06:51:36.940Z,43.10
2018-06-15T06:54:05.479Z,43.20
2018-06-15T06:56:33.780Z,43.30
2018-06-15T06:59:02.187Z,43.90
2018-06-15T07:01:30.526Z,43.40
2018-06-15T07:03:58.987Z,43.50
2018-06-15T07:06:27.339Z,43.60
2018-06-15T07:08:55.832Z,43.60
2018-06-15T07:11:24.262Z,43.50
2018-06-15T07:13:52.808Z,43.50
2018-06-15T07:16:21.342Z,43.50
2018-06-15T07:18:49.894Z,43.40
2018-06-15T07:21:18.243Z,43.40
2018-06-15T07:23:46.529Z,43.50
2018-06-15T07:26:14.836Z,43.30
2018-06-15T07:28:43.273Z,43.30
2018-06-15T07:31:11.583Z,43.20
2018-06-15T07:33:39.884Z,43.10
2018-06-15T07:36:08.182Z,43.20
2018-06-15T07:38:36.572Z,43.30
2018-06-15T07:41:04.946Z,43.40
2018-06-15T07:43:33.514Z,43.30
2018-06-15T07:46:01.987Z,43.30
2018-06-15T07:48:30.391Z,43.50
2018-06-15T07:50:58.804Z,43.60
2018-06-15T07:53:27.221Z,43.80
2018-06-15T07:55:55.572Z,43.80
2018-06-15T07:58:23.991Z,44.00
2018-06-15T08:00:52.609Z,44.10
2018-06-15T08:03:22.303Z,44.10
2018-06-15T08:05:50.667Z,43.90
2018-06-15T08:08:25.425Z,43.80
2018-06-15T08:10:53.905Z,43.70
2018-06-15T08:13:22.404Z,43.70
2018-06-15T08:15:50.827Z,43.50
2018-06-15T08:18:19.203Z,43.90
2018-06-15T08:20:47.572Z,43.00
2018-06-15T08:23:15.998Z,42.80
2018-06-15T08:25:44.388Z,42.70
2018-06-15T08:28:12.693Z,42.70
2018-06-15T08:30:41.167Z,42.40
2018-06-15T08:33:09.500Z,42.00
2018-06-15T08:35:37.795Z,41.30
2018-06-15T08:38:06.126Z,40.60
2018-06-15T08:40:34.724Z,40.00
2018-06-15T08:43:03.252Z,39.60
2018-06-15T08:45:31.767Z,39.30
2018-06-15T08:48:00.140Z,38.90
2018-06-15T08:50:28.542Z,38.70
2018-06-15T08:52:56.960Z,38.70
2018-06-15T08:55:25.391Z,38.60
2018-06-15T08:57:54.019Z,38.80
2018-06-15T09:00:22.507Z,39.40
2018-06-15T09:02:50.894Z,40.00
2018-06-15T09:05:19.337Z,40.40
2018-06-15T09:07:47.815Z,40.70
2018-06-15T09:10:16.287Z,41.10
2018-06-15T09:12:44.692Z,40.90
2018-06-15T09:15:13.030Z,40.20
2018-06-15T09:17:41.391Z,40.10
2018-06-15T09:20:09.765Z,39.70
2018-06-15T09:22:38.191Z,39.60
2018-06-15T09:25:09.510Z,39.50
2018-06-15T09:27:37.912Z,39.70
2018-06-15T09:30:06.283Z,39.80
2018-06-15T09:32:34.685Z,38.80
2018-06-15T09:35:03.051Z,37.10
2018-06-15T09:37:31.771Z,35.80
2018-06-15T09:40:00.288Z,34.70
2018-06-15T09:42:28.915Z,34.20
2018-06-15T09:44:57.296Z,33.80
2018-06-15T09:47:25.772Z,33.60
2018-06-15T09:49:54.186Z,33.20
2018-06-15T09:52:22.833Z,33.10
2018-06-15T09:54:51.219Z,32.90
2018-06-15T09:57:19.547Z,32.70
2018-06-15T09:59:47.851Z,32.40
2018-06-15T10:02:16.248Z,32.30
2018-06-15T10:04:44.636Z,32.10
2018-06-15T10:07:13.181Z,32.20
2018-06-15T10:09:41.503Z,32.30
2018-06-15T10:12:10.011Z,32.50
2018-06-15T10:14:38.389Z,32.60
2018-06-15T10:17:06.774Z,32.60
2018-06-15T10:19:35.094Z,32.60
2018-06-15T10:22:03.554Z,32.70
2018-06-15T10:24:31.934Z,32.70
2018-06-15T10:27:00.310Z,32.60
2018-06-15T10:29:28.786Z,32.70
2018-06-15T10:31:57.182Z,32.80
2018-06-15T10:34:25.535Z,32.90
2018-06-15T10:36:53.969Z,33.10
2018-06-15T10:39:22.442Z,32.30
2018-06-15T10:41:50.786Z,31.90
2018-06-15T10:44:19.172Z,31.70
2018-06-15T10:46:47.508Z,31.40
2018-06-15T10:49:15.904Z,31.20
2018-06-15T10:51:44.353Z,30.50
2018-06-15T10:54:12.708Z,30.30
2018-06-15T10:56:41.120Z,30.10
2018-06-15T11:01:37.662Z,30.30
2018-06-15T11:04:05.996Z,30.20
2018-06-15T11:06:34.343Z,30.30
2018-06-15T11:09:02.756Z,30.20
2018-06-15T11:11:31.089Z,30.30
2018-06-15T11:13:59.606Z,30.10
2018-06-15T11:16:27.918Z,30.00
2018-06-15T11:18:56.505Z,30.00
2018-06-15T11:21:24.812Z,30.10
2018-06-15T11:23:53.127Z,30.10
2018-06-15T11:26:21.438Z,30.20
2018-06-15T11:28:49.807Z,30.40
2018-06-15T11:31:18.249Z,30.50
2018-06-15T11:33:46.563Z,30.50
2018-06-15T11:36:14.948Z,30.50
2018-06-15T11:38:43.415Z,30.50
2018-06-15T11:41:11.884Z,30.60
2018-06-15T11:43:40.231Z,30.60
2018-06-15T11:46:08.664Z,30.60
2018-06-15T11:48:36.991Z,30.60
2018-06-15T11:51:05.320Z,30.50
2018-06-15T11:53:33.890Z,30.60
2018-06-15T11:56:02.358Z,30.50
2018-06-15T11:58:30.747Z,30.40
2018-06-15T12:00:59.340Z,30.50
2018-06-15T12:03:27.704Z,30.50
2018-06-15T12:05:56.150Z,30.70
2018-06-15T12:08:24.492Z,31.20
2018-06-15T12:13:20.860Z,31.00
2018-06-15T12:15:49.248Z,31.00
2018-06-15T12:18:17.607Z,31.40
2018-06-15T12:20:45.931Z,31.10
2018-06-15T12:23:14.251Z,31.20
2018-06-15T12:25:42.707Z,31.10
2018-06-15T12:28:11.119Z,31.40
2018-06-15T12:30:39.495Z,31.50
2018-06-15T12:33:07.893Z,31.60
2018-06-15T12:35:36.294Z,31.70
2018-06-15T12:38:04.709Z,32.20
2018-06-15T12:40:33.052Z,31.90
2018-06-15T12:43:01.489Z,32.00
2018-06-15T12:45:29.857Z,32.10
2018-06-15T12:47:58.609Z,32.20
2018-06-15T12:50:26.983Z,31.70
2018-06-15T12:52:55.616Z,32.30
2018-06-15T12:55:23.975Z,32.10
2018-06-15T12:57:52.561Z,32.00
2018-06-15T13:00:21.024Z,32.10
2018-06-15T13:02:49.336Z,32.10
2018-06-15T13:05:17.683Z,32.20
2018-06-15T13:07:45.991Z,32.20
2018-06-15T13:10:14.374Z,32.10
2018-06-15T13:12:42.699Z,32.00
2018-06-15T13:15:11.003Z,31.90
2018-06-15T13:17:39.354Z,31.80
2018-06-15T13:20:08.386Z,31.90
2018-06-15T13:22:36.779Z,31.90
2018-06-15T13:27:33.243Z,31.90
2018-06-15T13:30:01.695Z,31.70
2018-06-15T13:32:30.115Z,31.60
2018-06-15T13:34:58.688Z,31.40
2018-06-15T13:37:27.145Z,31.30
2018-06-15T13:39:55.498Z,31.10
2018-06-15T13:42:23.825Z,31.50
2018-06-15T13:44:52.155Z,30.80
2018-06-15T13:47:20.513Z,30.60
2018-06-15T13:49:48.927Z,30.50
2018-06-15T13:52:17.248Z,30.40
2018-06-15T13:54:45.907Z,30.30
2018-06-15T13:57:14.251Z,30.20
2018-06-15T13:59:42.693Z,30.20
2018-06-15T14:02:11.032Z,30.10
2018-06-15T14:04:39.324Z,30.00
2018-06-15T14:07:07.746Z,30.00
2018-06-15T14:09:36.071Z,30.10
2018-06-15T14:12:04.610Z,30.80
2018-06-15T14:14:32.948Z,31.30
2018-06-15T14:17:01.451Z,31.20
2018-06-15T14:19:29.895Z,30.50
2018-06-15T14:21:58.320Z,30.20
2018-06-15T14:24:26.793Z,30.20
2018-06-15T14:26:55.124Z,30.30
2018-06-15T14:29:23.450Z,30.80
2018-06-15T14:31:51.876Z,31.20
2018-06-15T14:34:20.397Z,31.40
2018-06-15T14:36:48.753Z,30.90
2018-06-15T14:39:17.052Z,30.20
2018-06-15T14:41:45.770Z,29.40
2018-06-15T14:44:14.252Z,28.60
2018-06-15T14:46:42.674Z,27.80
2018-06-15T14:49:11.000Z,27.10
2018-06-15T14:51:39.491Z,26.50
2018-06-15T14:54:07.850Z,26.20
2018-06-15T14:56:36.233Z,25.70
2018-06-15T14:59:04.717Z,25.40
2018-06-15T15:01:33.331Z,25.10
2018-06-15T15:04:01.880Z,25.10
2018-06-15T15:06:30.347Z,25.10
2018-06-15T15:08:58.991Z,25.10
2018-06-15T15:11:27.451Z,25.10
2018-06-15T15:13:55.893Z,25.20
2018-06-15T15:16:24.350Z,25.40
2018-06-15T15:18:52.850Z,25.50
2018-06-15T15:21:21.274Z,25.70
2018-06-15T15:23:49.706Z,25.90
2018-06-15T15:26:18.068Z,26.00
2018-06-15T15:28:46.538Z,26.20
2018-06-15T15:31:14.855Z,26.40
2018-06-15T15:33:43.307Z,26.60
2018-06-15T15:36:11.981Z,26.80
2018-06-15T15:38:40.392Z,27.00
2018-06-15T15:41:08.737Z,27.20
2018-06-15T15:43:37.187Z,27.40
2018-06-15T15:46:05.638Z,27.60
2018-06-15T15:48:34.152Z,27.80
2018-06-15T15:51:02.903Z,28.00
2018-06-15T15:53:31.621Z,28.10
2018-06-15T15:55:59.970Z,28.30
2018-06-15T15:58:28.470Z,28.40
2018-06-15T16:00:56.891Z,28.50
2018-06-15T16:03:25.406Z,28.70
2018-06-15T16:05:53.802Z,28.80
2018-06-15T16:08:22.148Z,28.90
2018-06-15T16:15:53.330Z,29.30
2018-06-15T16:18:21.786Z,29.40
2018-06-15T16:20:50.124Z,29.50
2018-06-15T16:23:18.448Z,29.60
2018-06-15T16:25:46.879Z,29.70
2018-06-15T16:28:15.215Z,29.80
2018-06-15T16:30:43.622Z,29.80
2018-06-15T16:33:11.971Z,30.00
2018-06-15T16:35:40.446Z,30.00
2018-06-15T16:38:08.833Z,30.00
2018-06-15T16:40:37.343Z,30.10
2018-06-15T16:43:05.891Z,30.20
2018-06-15T16:45:34.354Z,30.30
2018-06-15T16:48:03.319Z,30.30
2018-06-15T16:50:31.971Z,30.40
2018-06-15T16:53:00.496Z,30.50
2018-06-15T16:55:29.314Z,30.60
2018-06-15T16:57:57.646Z,30.50
2018-06-15T17:00:25.983Z,30.70
2018-06-15T17:02:54.337Z,30.70
2018-06-15T17:05:22.652Z,30.70
2018-06-15T17:07:51.060Z,30.70
2018-06-15T17:10:19.502Z,30.80
2018-06-15T17:12:47.880Z,30.80
2018-06-15T17:15:16.306Z,30.90
2018-06-15T17:17:44.755Z,31.00
2018-06-15T17:20:13.207Z,31.00
2018-06-15T17:22:41.647Z,31.00
2018-06-15T17:25:10.000Z,31.10
2018-06-15T17:27:38.410Z,31.10
2018-06-15T17:30:06.826Z,31.20
2018-06-15T17:32:35.184Z,31.20
2018-06-15T17:35:03.769Z,31.20
2018-06-15T17:37:32.151Z,31.30
2018-06-15T17:40:00.846Z,31.30
2018-06-15T17:42:29.313Z,31.30
2018-06-15T17:44:59.099Z,31.40
2018-06-15T17:47:27.544Z,31.60
2018-06-15T17:49:56.075Z,31.50
2018-06-15T17:52:24.380Z,31.60
2018-06-15T17:54:52.882Z,31.60
2018-06-15T17:57:21.328Z,31.70
2018-06-15T18:02:17.775Z,31.80
2018-06-15T18:04:46.108Z,32.00
2018-06-15T18:07:14.451Z,32.00
2018-06-15T18:09:42.779Z,32.10
2018-06-15T18:12:11.263Z,32.20
2018-06-15T18:14:39.732Z,32.20
2018-06-15T18:17:08.298Z,32.40
2018-06-15T18:19:36.864Z,32.40
2018-06-15T18:22:05.823Z,32.50
2018-06-15T18:24:34.440Z,32.60
2018-06-15T18:27:02.976Z,32.70
2018-06-15T18:29:31.663Z,32.80
2018-06-15T18:32:00.181Z,32.90
2018-06-15T18:34:28.909Z,33.00
2018-06-15T18:36:57.360Z,33.10
2018-06-15T19:23:08.179Z,33.20
2018-06-15T19:25:36.541Z,35.50
2018-06-15T19:28:05.036Z,35.80
2018-06-15T19:30:33.456Z,35.90
2018-06-15T19:33:01.772Z,35.90
2018-06-15T19:35:30.170Z,35.90
2018-06-15T19:38:05.060Z,35.90
2018-06-15T19:40:33.464Z,35.90
2018-06-15T19:43:02.060Z,36.00
2018-06-15T19:45:30.807Z,36.00
2018-06-15T19:47:59.507Z,36.00
2018-06-15T19:50:27.996Z,36.00
2018-06-15T19:52:56.405Z,36.00
2018-06-15T19:55:24.891Z,36.00
2018-06-15T19:57:53.219Z,36.20
2018-06-15T20:00:21.806Z,36.10
2018-06-15T20:02:50.127Z,36.20
2018-06-15T20:05:18.524Z,36.20
2018-06-15T20:07:47.052Z,36.20
2018-06-15T20:10:15.643Z,36.20
2018-06-15T20:12:44.495Z,36.20
2018-06-15T20:15:12.934Z,36.30
2018-06-15T20:17:41.435Z,36.30
2018-06-15T20:20:09.773Z,36.30
2018-06-15T20:22:38.117Z,36.30
2018-06-15T20:25:06.771Z,36.30
2018-06-15T20:27:35.785Z,36.40
2018-06-15T20:30:05.295Z,36.40
2018-06-15T20:32:34.898Z,36.50
2018-06-15T20:35:03.666Z,36.60
2018-06-15T20:37:32.279Z,36.30
2018-06-15T20:40:00.955Z,36.60
2018-06-15T20:42:29.406Z,36.70
2018-06-15T20:44:59.565Z,36.70
2018-06-15T20:47:28.024Z,37.30
2018-06-15T20:49:56.639Z,36.70
2018-06-15T20:53:49.601Z,36.80
2018-06-15T20:56:17.927Z,36.80
2018-06-15T20:58:46.262Z,36.80
2018-06-15T21:01:14.743Z,37.60
2018-06-15T21:03:43.060Z,37.10
2018-06-15T21:06:11.473Z,37.10
2018-06-15T21:08:39.918Z,37.20
2018-06-15T21:11:08.459Z,37.30
2018-06-15T21:13:38.088Z,37.20
2018-06-15T21:16:06.623Z,37.30
2018-06-15T21:18:35.405Z,37.40
2018-06-15T21:21:04.941Z,37.40
2018-06-15T21:23:33.339Z,37.50
2018-06-15T21:26:01.741Z,37.50
2018-06-15T21:28:30.581Z,37.60
2018-06-15T21:30:59.242Z,37.60
2018-06-15T21:33:27.560Z,37.70
2018-06-15T21:35:56.163Z,37.70
2018-06-15T21:38:24.551Z,37.80
2018-06-15T21:40:53.808Z,37.80
2018-06-15T21:43:22.304Z,37.90
2018-06-15T21:45:50.878Z,37.90
2018-06-15T21:48:19.466Z,37.90
2018-06-15T21:53:16.078Z,38.10
2018-06-15T21:55:44.718Z,38.10
2018-06-15T22:00:41.679Z,38.20
2018-06-15T22:03:11.507Z,38.20
2018-06-15T22:05:40.140Z,38.30
2018-06-15T22:08:09.038Z,38.30
2018-06-15T22:10:37.817Z,38.40
2018-06-15T22:13:06.890Z,38.50
2018-06-15T22:15:35.612Z,38.50
2018-06-15T22:18:04.442Z,38.50
2018-06-15T22:20:33.095Z,38.60
2018-06-15T22:23:01.816Z,38.70
2018-06-15T22:25:30.708Z,38.70
2018-06-15T22:27:59.197Z,38.70
2018-06-15T22:30:27.549Z,39.00
2018-06-15T22:32:55.914Z,38.80
2018-06-15T22:35:24.379Z,39.00
2018-06-15T22:37:52.856Z,39.00
2018-06-15T22:40:21.470Z,39.00
2018-06-15T22:42:50.037Z,39.00
2018-06-15T22:45:18.537Z,39.10
2018-06-15T22:47:46.918Z,39.10
2018-06-15T22:50:15.252Z,39.20
2018-06-15T22:52:43.825Z,39.20
2018-06-15T22:55:12.284Z,39.30
2018-06-15T22:57:40.875Z,39.50
2018-06-15T23:00:09.525Z,39.50
2018-06-15T23:02:37.914Z,39.60
2018-06-15T23:05:06.237Z,39.60
2018-06-15T23:07:34.640Z,39.70
2018-06-15T23:10:03.095Z,39.70
2018-06-15T23:12:31.654Z,39.90
2018-06-15T23:15:00.034Z,39.90
2018-06-15T23:17:28.363Z,39.90
2018-06-15T23:19:56.644Z,40.00
2018-06-15T23:22:24.964Z,40.10
2018-06-15T23:24:53.300Z,40.20
2018-06-15T23:27:21.698Z,40.30
2018-06-15T23:29:50.240Z,40.30
2018-06-15T23:32:18.552Z,40.40
2018-06-15T23:34:47.066Z,40.40
2018-06-15T23:37:18.483Z,40.40
2018-06-15T23:39:46.846Z,40.60
2018-06-15T23:42:15.350Z,40.50
2018-06-15T23:44:43.705Z,40.60
2018-06-15T23:47:12.236Z,40.60
2018-06-15T23:49:40.651Z,40.80
2018-06-15T23:52:09.043Z,40.70
2018-06-15T23:54:37.409Z,40.80
2018-06-15T23:57:05.848Z,40.80
2018-06-15T23:59:34.249Z,40.90
